createdAt,value
2018-05-01T00:02:02.518Z,79.40
2018-05-01T00:04:30.039Z,79.30
2018-05-01T00:06:57.567Z,80.20
2018-05-01T00:09:25.863Z,78.30
2018-05-01T00:11:54.135Z,78.30
2018-05-01T00:14:22.411Z,79.00
2018-05-01T00:16:50.716Z,79.40
2018-05-01T00:19:18.559Z,79.40
2018-05-01T00:21:47.009Z,80.40
2018-05-01T00:24:14.550Z,81.60
2018-05-01T00:26:42.059Z,82.30
2018-05-01T00:29:09.599Z,81.70
2018-05-01T00:31:37.142Z,81.00
2018-05-01T00:34:04.684Z,81.50
2018-05-01T00:36:32.220Z,82.00
2018-05-01T00:38:59.767Z,82.50
2018-05-01T00:41:27.905Z,83.00
2018-05-01T00:43:55.478Z,83.30
2018-05-01T00:46:23.777Z,83.60
2018-05-01T00:48:51.335Z,83.50
2018-05-01T00:51:18.863Z,83.60
2018-05-01T00:53:46.717Z,82.80
2018-05-01T00:56:14.296Z,82.30
2018-05-01T00:58:42.623Z,82.70
2018-05-01T01:01:10.129Z,82.60
2018-05-01T01:03:38.522Z,80.60
2018-05-01T01:06:06.007Z,80.60
2018-05-01T01:08:33.544Z,78.50
2018-05-01T01:11:01.075Z,80.20
2018-05-01T01:13:29.399Z,82.70
2018-05-01T01:15:58.988Z,82.50
2018-05-01T01:18:26.543Z,82.40
2018-05-01T01:20:54.069Z,84.10
2018-05-01T01:23:21.595Z,85.50
2018-05-01T01:25:49.159Z,86.00
2018-05-01T01:28:16.699Z,87.00
2018-05-01T01:30:44.251Z,87.10
2018-05-01T01:33:11.759Z,86.80
2018-05-01T01:35:38.810Z,86.30
2018-05-01T01:38:06.621Z,85.10
2018-05-01T01:40:33.666Z,85.10
2018-05-01T01:43:00.693Z,87.50
2018-05-01T01:45:27.745Z,88.90
2018-05-01T01:47:54.806Z,87.20
2018-05-01T01:50:21.863Z,88.30
2018-05-01T01:52:48.918Z,89.20
2018-05-01T01:55:15.968Z,89.10
2018-05-01T01:57:42.996Z,89.40
2018-05-01T02:00:10.055Z,88.00
2018-05-01T02:02:37.089Z,86.30
2018-05-01T02:05:04.145Z,86.20
2018-05-01T02:07:31.186Z,86.40
2018-05-01T02:09:58.259Z,86.20
2018-05-01T02:12:25.310Z,85.10
2018-05-01T02:14:52.386Z,85.00
2018-05-01T02:17:19.401Z,85.00
2018-05-01T02:19:46.427Z,85.10
2018-05-01T02:22:13.482Z,86.50
2018-05-01T02:24:40.522Z,88.70
2018-05-01T02:27:07.583Z,89.30
2018-05-01T02:29:34.634Z,89.60
2018-05-01T02:32:01.690Z,89.40
2018-05-01T02:34:28.798Z,89.30
2018-05-01T02:36:55.828Z,89.30
2018-05-01T02:39:22.868Z,89.10
2018-05-01T02:41:50.662Z,88.20
2018-05-01T02:44:17.703Z,88.10
2018-05-01T02:46:44.732Z,87.90
2018-05-01T02:49:11.799Z,86.90
2018-05-01T02:51:38.837Z,87.40
2018-05-01T02:54:05.886Z,86.40
2018-05-01T02:56:32.944Z,86.50
2018-05-01T02:59:00.011Z,85.50
2018-05-01T03:01:27.111Z,86.00
2018-05-01T03:03:55.019Z,85.50
2018-05-01T03:06:22.054Z,85.50
2018-05-01T03:08:49.058Z,85.70
2018-05-01T03:11:16.941Z,87.10
2018-05-01T03:13:43.956Z,87.10
2018-05-01T03:16:10.970Z,86.90
2018-05-01T03:18:38.035Z,87.80
2018-05-01T03:21:05.087Z,88.50
2018-05-01T03:23:32.114Z,89.00
2018-05-01T03:25:59.142Z,88.20
2018-05-01T03:28:27.497Z,88.40
2018-05-01T03:30:54.536Z,87.90
2018-05-01T03:33:24.672Z,88.10
2018-05-01T03:35:51.734Z,87.70
2018-05-01T03:38:18.798Z,87.30
2018-05-01T03:40:46.622Z,87.30
2018-05-01T03:43:14.463Z,87.40
2018-05-01T03:45:41.565Z,87.40
2018-05-01T03:48:09.238Z,87.70
2018-05-01T03:50:36.360Z,88.00
2018-05-01T03:53:03.542Z,88.20
2018-05-01T03:55:31.473Z,88.60
2018-05-01T03:57:58.582Z,88.30
2018-05-01T04:00:25.612Z,88.50
2018-05-01T04:02:52.814Z,88.90
2018-05-01T04:05:21.258Z,89.20
2018-05-01T04:07:48.730Z,89.30
2018-05-01T04:10:17.950Z,89.80
2018-05-01T04:12:45.040Z,90.20
2018-05-01T04:15:12.045Z,90.10
2018-05-01T04:17:39.159Z,90.00
2018-05-01T04:20:06.262Z,90.10
2018-05-01T04:22:33.304Z,90.10
2018-05-01T04:25:00.337Z,90.10
2018-05-01T04:27:28.167Z,90.40
2018-05-01T04:29:55.210Z,90.40
2018-05-01T04:32:22.542Z,90.30
2018-05-01T04:34:50.185Z,90.10
2018-05-01T04:37:17.352Z,90.30
2018-05-01T04:39:44.501Z,90.40
2018-05-01T04:42:11.551Z,90.20
2018-05-01T04:44:38.572Z,90.10
2018-05-01T04:47:05.790Z,89.80
2018-05-01T04:49:32.879Z,89.20
2018-05-01T04:52:00.097Z,88.90
2018-05-01T04:54:27.236Z,88.50
2018-05-01T04:56:55.274Z,86.10
2018-05-01T04:59:23.140Z,86.70
2018-05-01T05:01:50.199Z,86.60
2018-05-01T05:04:17.273Z,87.00
2018-05-01T05:06:44.318Z,86.30
2018-05-01T05:09:11.446Z,85.40
2018-05-01T05:11:38.522Z,85.30
2018-05-01T05:14:06.795Z,85.60
2018-05-01T05:16:33.950Z,85.40
2018-05-01T05:19:01.086Z,85.20
2018-05-01T05:21:29.168Z,83.60
2018-05-01T05:23:56.359Z,83.50
2018-05-01T05:26:23.549Z,83.60
2018-05-01T05:28:50.801Z,83.50
2018-05-01T05:31:18.010Z,84.10
2018-05-01T05:33:45.188Z,83.30
2018-05-01T05:36:13.432Z,82.70
2018-05-01T05:38:40.701Z,81.80
2018-05-01T05:41:08.049Z,81.30
2018-05-01T05:43:35.098Z,81.40
2018-05-01T05:46:02.554Z,80.50
2018-05-01T05:48:29.755Z,80.20
2018-05-01T05:50:58.238Z,79.60
2018-05-01T05:53:25.421Z,79.60
2018-05-01T05:55:52.563Z,78.50
2018-05-01T05:58:19.714Z,78.00
2018-05-01T06:00:46.901Z,77.40
2018-05-01T06:03:15.709Z,76.60
2018-05-01T06:05:45.105Z,76.60
2018-05-01T06:08:12.238Z,76.80
2018-05-01T06:10:39.340Z,75.70
2018-05-01T06:13:06.724Z,73.70
2018-05-01T06:15:34.589Z,70.70
2018-05-01T06:18:01.656Z,70.60
2018-05-01T06:20:29.351Z,70.50
2018-05-01T06:22:57.164Z,71.50
2018-05-01T06:25:24.197Z,71.50
2018-05-01T06:27:51.252Z,71.70
2018-05-01T06:30:18.329Z,70.00
2018-05-01T06:32:45.396Z,70.30
2018-05-01T06:35:13.235Z,69.90
2018-05-01T06:37:40.312Z,69.80
2018-05-01T06:40:08.161Z,66.90
2018-05-01T06:42:35.196Z,66.90
2018-05-01T06:45:02.272Z,65.90
2018-05-01T06:47:29.334Z,64.40
2018-05-01T06:49:57.131Z,61.90
2018-05-01T06:52:24.179Z,61.90
2018-05-01T06:54:51.269Z,59.10
2018-05-01T06:57:18.300Z,59.30
2018-05-01T06:59:45.361Z,56.50
2018-05-01T07:02:12.443Z,54.30
2018-05-01T07:04:39.552Z,51.90
2018-05-01T07:07:06.573Z,52.40
2018-05-01T07:09:33.599Z,53.00
2018-05-01T07:12:00.683Z,53.10
2018-05-01T07:14:27.744Z,52.00
2018-05-01T07:16:54.797Z,52.00
2018-05-01T07:19:21.874Z,51.00
2018-05-01T07:21:48.911Z,51.80
2018-05-01T07:24:16.723Z,50.80
2018-05-01T07:26:43.749Z,50.70
2018-05-01T07:29:10.836Z,50.00
2018-05-01T07:31:37.867Z,49.20
2018-05-01T07:34:04.923Z,48.30
2018-05-01T07:36:31.972Z,49.70
2018-05-01T07:38:59.064Z,49.80
2018-05-01T07:41:26.204Z,49.20
2018-05-01T07:43:53.172Z,50.00
2018-05-01T07:46:20.228Z,50.20
2018-05-01T07:48:47.279Z,49.60
2018-05-01T07:51:14.414Z,50.10
2018-05-01T07:53:41.456Z,50.30
2018-05-01T07:56:08.530Z,49.60
2018-05-01T07:58:35.566Z,48.90
2018-05-01T08:01:02.597Z,48.80
2018-05-01T08:03:29.643Z,47.80
2018-05-01T08:05:56.669Z,48.50
2018-05-01T08:08:24.512Z,48.50
2018-05-01T08:10:52.589Z,48.50
2018-05-01T08:13:20.152Z,48.10
2018-05-01T08:15:47.202Z,47.70
2018-05-01T08:18:14.230Z,46.70
2018-05-01T08:20:41.299Z,46.30
2018-05-01T08:23:09.490Z,43.50
2018-05-01T08:25:37.300Z,41.30
2018-05-01T08:28:04.347Z,41.30
2018-05-01T08:30:32.012Z,39.70
2018-05-01T08:32:59.251Z,40.00
2018-05-01T08:35:27.310Z,40.60
2018-05-01T08:37:54.359Z,42.00
2018-05-01T08:40:21.391Z,42.90
2018-05-01T08:42:48.464Z,39.30
2018-05-01T08:45:15.540Z,40.70
2018-05-01T08:47:42.648Z,39.70
2018-05-01T08:50:09.697Z,38.00
2018-05-01T08:52:37.618Z,36.70
2018-05-01T08:55:05.905Z,35.10
2018-05-01T08:57:33.736Z,35.60
2018-05-01T09:00:00.836Z,35.60
2018-05-01T09:02:27.913Z,32.80
2018-05-01T09:04:55.947Z,34.00
2018-05-01T09:07:23.770Z,33.70
2018-05-01T09:09:50.934Z,33.70
2018-05-01T09:12:17.967Z,33.60
2018-05-01T09:14:45.007Z,33.20
2018-05-01T09:17:12.061Z,33.80
2018-05-01T09:19:40.841Z,32.70
2018-05-01T09:22:07.875Z,32.50
2018-05-01T09:24:34.934Z,33.60
2018-05-01T09:27:02.001Z,33.40
2018-05-01T09:29:29.042Z,34.90
2018-05-01T09:31:56.146Z,31.90
2018-05-01T09:34:23.186Z,32.00
2018-05-01T09:36:50.249Z,32.80
2018-05-01T09:39:17.369Z,32.70
2018-05-01T09:41:44.438Z,33.00
2018-05-01T09:44:11.514Z,32.70
2018-05-01T09:46:38.599Z,33.00
2018-05-01T09:49:05.692Z,32.40
2018-05-01T09:51:32.752Z,32.80
2018-05-01T09:54:00.319Z,33.40
2018-05-01T09:56:27.899Z,33.10
2018-05-01T09:58:56.253Z,33.80
2018-05-01T10:01:23.844Z,33.80
2018-05-01T10:03:51.521Z,31.20
2018-05-01T10:06:19.900Z,33.00
2018-05-01T10:08:48.275Z,33.70
2018-05-01T10:11:17.773Z,32.40
2018-05-01T10:13:46.095Z,33.00
2018-05-01T10:16:13.683Z,33.00
2018-05-01T10:18:41.247Z,34.90
2018-05-01T10:21:09.317Z,35.50
2018-05-01T10:23:37.850Z,34.20
2018-05-01T10:26:05.414Z,34.20
2018-05-01T10:28:33.013Z,34.20
2018-05-01T10:31:02.990Z,33.80
2018-05-01T10:33:30.556Z,33.80
2018-05-01T10:35:58.101Z,33.00
2018-05-01T10:38:25.902Z,32.40
2018-05-01T10:40:53.449Z,33.50
2018-05-01T10:43:21.002Z,34.10
2018-05-01T10:45:48.586Z,32.20
2018-05-01T10:48:17.524Z,32.40
2018-05-01T10:50:45.112Z,31.80
2018-05-01T10:53:12.633Z,31.50
2018-05-01T10:55:41.011Z,32.30
2018-05-01T10:58:09.310Z,33.70
2018-05-01T11:00:36.907Z,33.60
2018-05-01T11:03:04.496Z,34.00
2018-05-01T11:05:32.043Z,34.10
2018-05-01T11:07:59.594Z,36.00
2018-05-01T11:10:27.136Z,35.80
2018-05-01T11:12:54.668Z,37.40
2018-05-01T11:15:22.207Z,37.30
2018-05-01T11:17:50.510Z,38.50
2018-05-01T11:20:18.066Z,38.50
2018-05-01T11:22:45.579Z,38.80
2018-05-01T11:25:13.813Z,39.00
2018-05-01T11:27:41.370Z,40.10
2018-05-01T11:30:08.934Z,40.70
2018-05-01T11:32:36.519Z,41.70
2018-05-01T11:35:04.079Z,42.80
2018-05-01T11:37:31.640Z,43.00
2018-05-01T11:39:59.161Z,43.40
2018-05-01T11:42:26.687Z,44.10
2018-05-01T11:44:55.024Z,42.30
2018-05-01T11:47:22.574Z,42.10
2018-05-01T11:49:50.112Z,41.30
2018-05-01T11:52:17.695Z,41.80
2018-05-01T11:54:45.246Z,42.30
2018-05-01T11:57:12.779Z,42.80
2018-05-01T11:59:40.381Z,42.50
2018-05-01T12:02:07.923Z,41.90
2018-05-01T12:04:36.126Z,41.30
2018-05-01T12:07:04.436Z,39.60
2018-05-01T12:09:32.765Z,39.00
2018-05-01T12:12:00.323Z,39.00
2018-05-01T12:14:27.874Z,38.60
2018-05-01T12:16:55.388Z,38.80
2018-05-01T12:19:24.373Z,36.60
2018-05-01T12:21:52.783Z,30.90
2018-05-01T12:24:21.698Z,30.90
2018-05-01T12:26:49.268Z,29.50
2018-05-01T12:29:17.003Z,29.00
2018-05-01T12:31:44.592Z,29.10
2018-05-01T12:34:12.127Z,28.90
2018-05-01T12:36:39.768Z,29.00
2018-05-01T12:39:08.075Z,27.80
2018-05-01T12:41:35.653Z,27.80
2018-05-01T12:44:03.195Z,27.70
2018-05-01T12:46:31.143Z,27.30
2018-05-01T12:48:58.729Z,28.00
2018-05-01T12:51:26.278Z,28.30
2018-05-01T12:53:53.967Z,27.30
2018-05-01T12:56:21.580Z,29.60
2018-05-01T12:58:49.114Z,28.90
2018-05-01T13:01:18.263Z,27.10
2018-05-01T13:03:45.808Z,27.00
2018-05-01T13:06:13.337Z,28.50
2018-05-01T13:08:40.992Z,31.00
2018-05-01T13:11:08.558Z,32.70
2018-05-01T13:13:36.146Z,31.20
2018-05-01T13:16:03.664Z,34.10
2018-05-01T13:18:31.998Z,33.00
2018-05-01T13:20:59.515Z,33.00
2018-05-01T13:23:27.080Z,32.70
2018-05-01T13:25:54.616Z,31.90
2018-05-01T13:28:22.899Z,33.30
2018-05-01T13:30:50.476Z,33.20
2018-05-01T13:33:18.033Z,35.50
2018-05-01T13:35:45.600Z,35.30
2018-05-01T13:38:13.127Z,34.60
2018-05-01T13:40:41.453Z,38.70
2018-05-01T13:43:09.000Z,38.70
2018-05-01T13:45:36.574Z,41.00
2018-05-01T13:48:04.133Z,42.20
2018-05-01T13:50:31.780Z,40.10
2018-05-01T13:52:59.254Z,39.40
2018-05-01T13:55:26.836Z,39.30
2018-05-01T13:57:54.376Z,39.10
2018-05-01T14:00:21.933Z,38.10
2018-05-01T14:02:49.446Z,38.00
2018-05-01T14:05:17.028Z,37.90
2018-05-01T14:07:44.578Z,39.20
2018-05-01T14:10:12.150Z,38.80
2018-05-01T14:12:39.722Z,39.30
2018-05-01T14:15:07.272Z,40.80
2018-05-01T14:17:34.882Z,40.70
2018-05-01T14:20:03.171Z,40.30
2018-05-01T14:22:31.582Z,40.10
2018-05-01T14:24:59.099Z,40.10
2018-05-01T14:27:27.398Z,39.40
2018-05-01T14:29:54.913Z,39.30
2018-05-01T14:32:22.475Z,39.10
2018-05-01T14:34:50.040Z,39.80
2018-05-01T14:37:17.587Z,39.20
2018-05-01T14:39:45.140Z,38.80
2018-05-01T14:42:12.714Z,38.50
2018-05-01T14:44:40.307Z,38.80
2018-05-01T14:47:07.848Z,38.40
2018-05-01T14:49:36.169Z,39.20
2018-05-01T14:52:03.739Z,39.20
2018-05-01T14:54:31.378Z,38.80
2018-05-01T14:56:59.039Z,38.70
2018-05-01T14:59:26.563Z,39.10
2018-05-01T15:01:54.148Z,39.80
2018-05-01T15:04:21.704Z,39.30
2018-05-01T15:06:50.514Z,39.20
2018-05-01T15:09:18.155Z,39.90
2018-05-01T15:11:45.721Z,40.80
2018-05-01T15:14:13.276Z,41.80
2018-05-01T15:16:40.789Z,42.00
2018-05-01T15:19:08.434Z,41.00
2018-05-01T15:21:35.988Z,41.20
2018-05-01T15:24:03.524Z,42.90
2018-05-01T15:26:31.039Z,43.00
2018-05-01T15:28:59.356Z,44.40
2018-05-01T15:31:26.900Z,44.20
2018-05-01T15:33:54.451Z,45.10
2018-05-01T15:36:22.114Z,45.40
2018-05-01T15:38:50.417Z,46.00
2018-05-01T15:41:19.636Z,46.00
2018-05-01T15:43:48.532Z,47.20
2018-05-01T15:46:16.523Z,47.10
2018-05-01T15:48:44.048Z,47.60
2018-05-01T15:51:11.601Z,46.80
2018-05-01T15:53:39.138Z,47.60
2018-05-01T15:56:06.748Z,47.70
2018-05-01T15:58:34.292Z,48.00
2018-05-01T16:01:01.897Z,49.10
2018-05-01T16:03:29.491Z,49.50
2018-05-01T16:05:57.023Z,49.00
2018-05-01T16:08:24.601Z,49.90
2018-05-01T16:10:52.158Z,50.40
2018-05-01T16:13:19.704Z,50.60
2018-05-01T16:15:47.244Z,50.80
2018-05-01T16:18:15.658Z,51.40
2018-05-01T16:20:43.234Z,51.40
2018-05-01T16:23:10.777Z,52.10
2018-05-01T16:25:38.331Z,51.90
2018-05-01T16:28:05.914Z,52.10
2018-05-01T16:30:33.503Z,52.00
2018-05-01T16:33:01.086Z,51.90
2018-05-01T16:35:29.464Z,52.00
2018-05-01T16:37:57.055Z,51.90
2018-05-01T16:40:24.708Z,51.80
2018-05-01T16:42:52.222Z,51.70
2018-05-01T16:45:19.800Z,51.90
2018-05-01T16:47:49.585Z,51.70
2018-05-01T16:50:17.107Z,51.70
2018-05-01T16:52:44.692Z,51.30
2018-05-01T16:55:12.248Z,50.90
2018-05-01T16:57:39.795Z,50.60
2018-05-01T17:00:07.347Z,50.80
2018-05-01T17:02:34.906Z,50.70
2018-05-01T17:05:02.424Z,50.60
2018-05-01T17:07:30.788Z,50.70
2018-05-01T17:09:59.109Z,50.80
2018-05-01T17:12:26.762Z,50.70
2018-05-01T17:14:54.323Z,50.80
2018-05-01T17:17:21.873Z,50.80
2018-05-01T17:19:50.547Z,50.50
2018-05-01T17:22:18.154Z,50.60
2018-05-01T17:24:45.711Z,50.70
2018-05-01T17:27:13.272Z,51.10
2018-05-01T17:29:40.846Z,51.30
2018-05-01T17:32:08.432Z,51.40
2018-05-01T17:34:36.886Z,52.10
2018-05-01T17:37:05.580Z,52.10
2018-05-01T17:39:33.254Z,51.90
2018-05-01T17:42:00.847Z,52.30
2018-05-01T17:44:28.498Z,52.60
2018-05-01T17:46:56.815Z,52.10
2018-05-01T17:49:24.352Z,52.10
2018-05-01T17:51:51.910Z,52.30
2018-05-01T17:54:19.422Z,52.90
2018-05-01T17:56:47.047Z,52.90
2018-05-01T17:59:14.667Z,53.40
2018-05-01T18:01:42.960Z,54.30
2018-05-01T18:04:10.562Z,54.30
2018-05-01T18:06:38.102Z,54.30
2018-05-01T18:09:05.645Z,54.90
2018-05-01T18:11:33.228Z,55.00
2018-05-01T18:14:00.793Z,55.20
2018-05-01T18:16:28.405Z,55.40
2018-05-01T18:18:56.021Z,55.60
2018-05-01T18:21:23.560Z,55.90
2018-05-01T18:23:51.094Z,56.40
2018-05-01T18:26:18.640Z,56.80
2018-05-01T18:28:46.245Z,56.70
2018-05-01T18:31:13.804Z,57.00
2018-05-01T18:33:41.413Z,57.30
2018-05-01T18:36:09.784Z,56.90
2018-05-01T18:38:37.359Z,56.90
2018-05-01T18:41:04.899Z,57.00
2018-05-01T18:43:32.495Z,57.00
2018-05-01T18:46:00.090Z,57.00
2018-05-01T18:48:27.624Z,56.90
2018-05-01T18:50:55.245Z,56.60
2018-05-01T18:53:22.831Z,56.60
2018-05-01T18:55:50.445Z,56.50
2018-05-01T18:58:19.579Z,56.50
2018-05-01T19:00:47.188Z,56.80
2018-05-01T19:03:14.707Z,56.80
2018-05-01T19:05:42.786Z,57.20
2018-05-01T19:08:10.345Z,57.20
2018-05-01T19:10:37.870Z,56.90
2018-05-01T19:13:05.430Z,57.50
2018-05-01T19:15:33.764Z,57.90
2018-05-01T19:18:01.360Z,57.90
2018-05-01T19:20:30.148Z,57.90
2018-05-01T19:22:57.717Z,57.90
2018-05-01T19:25:25.307Z,58.10
2018-05-01T19:27:52.842Z,58.10
2018-05-01T19:30:20.424Z,58.10
2018-05-01T19:32:47.952Z,58.10
2018-05-01T19:35:15.520Z,57.90
2018-05-01T19:37:43.084Z,58.20
2018-05-01T19:40:10.693Z,58.40
2018-05-01T19:42:38.290Z,59.10
2018-05-01T19:45:06.619Z,59.70
2018-05-01T19:47:34.195Z,59.70
2018-05-01T19:50:01.787Z,60.10
2018-05-01T19:52:30.124Z,61.40
2018-05-01T19:54:58.274Z,61.30
2018-05-01T19:57:25.849Z,61.90
2018-05-01T19:59:53.393Z,62.60
2018-05-01T20:02:20.948Z,62.80
2018-05-01T20:04:48.486Z,62.10
2018-05-01T20:07:16.019Z,62.60
2018-05-01T20:09:44.363Z,62.50
2018-05-01T20:12:11.925Z,62.40
2018-05-01T20:14:40.255Z,62.70
2018-05-01T20:17:07.797Z,62.70
2018-05-01T20:19:36.139Z,63.30
2018-05-01T20:22:03.673Z,63.20
2018-05-01T20:24:31.208Z,63.40
2018-05-01T20:26:59.985Z,63.30
2018-05-01T20:29:29.824Z,63.40
2018-05-01T20:31:57.366Z,63.40
2018-05-01T20:34:24.933Z,63.50
2018-05-01T20:36:52.525Z,63.10
2018-05-01T20:39:21.315Z,63.30
2018-05-01T20:41:48.876Z,63.00
2018-05-01T20:44:18.720Z,63.70
2018-05-01T20:46:46.270Z,63.70
2018-05-01T20:49:14.596Z,63.30
2018-05-01T20:51:42.160Z,63.30
2018-05-01T20:54:09.750Z,63.20
2018-05-01T20:56:37.349Z,62.50
2018-05-01T20:59:04.884Z,61.80
2018-05-01T21:01:32.415Z,60.80
2018-05-01T21:03:59.978Z,60.50
2018-05-01T21:06:27.506Z,60.30
2018-05-01T21:08:55.041Z,60.60
2018-05-01T21:11:24.287Z,60.70
2018-05-01T21:13:51.826Z,60.70
2018-05-01T21:16:20.155Z,60.50
2018-05-01T21:18:47.678Z,60.40
2018-05-01T21:21:15.251Z,60.60
2018-05-01T21:23:42.786Z,60.40
2018-05-01T21:26:10.378Z,60.30
2018-05-01T21:28:38.009Z,60.40
2018-05-01T21:31:05.535Z,61.00
2018-05-01T21:33:33.837Z,61.10
2018-05-01T21:36:02.368Z,61.10
2018-05-01T21:38:29.903Z,61.60
2018-05-01T21:40:57.438Z,61.30
2018-05-01T21:43:24.988Z,61.30
2018-05-01T21:45:52.495Z,62.10
2018-05-01T21:48:20.062Z,62.10
2018-05-01T21:50:47.627Z,62.20
2018-05-01T21:53:15.957Z,61.80
2018-05-01T21:55:43.492Z,61.80
2018-05-01T21:58:11.021Z,61.70
2018-05-01T22:00:38.568Z,61.60
2018-05-01T22:03:06.113Z,62.20
2018-05-01T22:05:33.677Z,61.60
2018-05-01T22:08:01.198Z,61.70
2018-05-01T22:10:28.719Z,61.80
2018-05-01T22:12:56.244Z,61.60
2018-05-01T22:15:23.806Z,61.70
2018-05-01T22:17:51.418Z,61.50
2018-05-01T22:20:18.943Z,61.40
2018-05-01T22:22:46.511Z,61.60
2018-05-01T22:25:14.063Z,60.60
2018-05-01T22:27:41.602Z,61.00
2018-05-01T22:30:09.119Z,60.90
2018-05-01T22:32:36.689Z,60.60
2018-05-01T22:35:04.223Z,60.00
2018-05-01T22:37:32.539Z,60.00
2018-05-01T22:40:00.098Z,59.90
2018-05-01T22:42:28.383Z,60.00
2018-05-01T22:44:55.942Z,60.00
2018-05-01T22:47:25.497Z,60.70
2018-05-01T22:49:53.788Z,60.00
2018-05-01T22:52:21.848Z,60.00
2018-05-01T22:54:49.411Z,59.90
2018-05-01T22:57:16.956Z,59.90
2018-05-01T22:59:46.304Z,60.00
2018-05-01T23:02:13.879Z,60.00
2018-05-01T23:04:41.378Z,60.70
2018-05-01T23:07:09.678Z,60.80
2018-05-01T23:09:37.277Z,60.80
2018-05-01T23:12:05.389Z,60.10
2018-05-01T23:14:33.679Z,59.90
2018-05-01T23:17:01.221Z,59.90
2018-05-01T23:19:29.545Z,59.90
2018-05-01T23:21:57.067Z,59.90
2018-05-01T23:24:24.623Z,59.90
2018-05-01T23:26:52.900Z,60.60
2018-05-01T23:29:20.462Z,59.80
2018-05-01T23:31:47.995Z,59.90
2018-05-01T23:34:16.291Z,59.90
2018-05-01T23:36:44.688Z,59.80
2018-05-01T23:39:12.551Z,59.80
2018-05-01T23:41:40.099Z,59.80
2018-05-01T23:44:07.619Z,60.10
2018-05-01T23:46:35.272Z,60.50
2018-05-01T23:49:02.825Z,60.60
2018-05-01T23:51:31.859Z,60.50
2018-05-01T23:54:00.149Z,60.80
2018-05-01T23:56:27.676Z,60.80
2018-05-01T23:58:55.198Z,60.80
